sensor_id;sensor_type;location;lat;lon;timestamp;pressure;altitude;pressure_sealevel;temperature;humidity
25350;BME280;13302;48.796;11.978;2023-12-20T00:00:51;96765.00;;;5.75;38.24
25350;BME280;13302;48.796;11.978;2023-12-20T00:03:38;96773.41;;;5.78;38.05
25350;BME280;13302;48.796;11.978;2023-12-20T00:06:29;96767.09;;;5.86;37.98
25350;BME280;13302;48.796;11.978;2023-12-20T00:09:16;96770.19;;;5.85;38.11
25350;BME280;13302;48.796;11.978;2023-12-20T00:12:03;96775.84;;;5.88;37.94
25350;BME280;13302;48.796;11.978;2023-12-20T00:14:51;96770.81;;;5.90;37.91
25350;BME280;13302;48.796;11.978;2023-12-20T00:17:37;96763.41;;;5.91;37.94
25350;BME280;13302;48.796;11.978;2023-12-20T00:20:25;96751.94;;;5.80;38.27
25350;BME280;13302;48.796;11.978;2023-12-20T00:23:12;96747.91;;;5.78;38.31
25350;BME280;13302;48.796;11.978;2023-12-20T00:25:59;96745.00;;;5.74;38.43
25350;BME280;13302;48.796;11.978;2023-12-20T00:28:46;96747.75;;;5.83;38.24
25350;BME280;13302;48.796;11.978;2023-12-20T00:31:33;96728.06;;;5.81;38.32
25350;BME280;13302;48.796;11.978;2023-12-20T00:34:20;96729.03;;;5.76;38.42
25350;BME280;13302;48.796;11.978;2023-12-20T00:37:07;96734.84;;;5.75;38.35
25350;BME280;13302;48.796;11.978;2023-12-20T00:39:54;96739.34;;;5.79;38.25
25350;BME280;13302;48.796;11.978;2023-12-20T00:42:41;96724.19;;;5.82;38.21
25350;BME280;13302;48.796;11.978;2023-12-20T00:45:28;96710.00;;;5.80;38.32
25350;BME280;13302;48.796;11.978;2023-12-20T00:48:15;96706.94;;;5.81;38.26
25350;BME280;13302;48.796;11.978;2023-12-20T00:51:03;96713.53;;;5.89;38.27
25350;BME280;13302;48.796;11.978;2023-12-20T00:53:50;96705.31;;;5.89;38.27
25350;BME280;13302;48.796;11.978;2023-12-20T00:56:41;96722.41;;;5.94;38.14
25350;BME280;13302;48.796;11.978;2023-12-20T00:59:28;96710.28;;;5.95;38.27
25350;BME280;13302;48.796;11.978;2023-12-20T01:02:15;96696.72;;;5.99;37.96
25350;BME280;13302;48.796;11.978;2023-12-20T01:05:02;96709.03;;;5.93;38.11
25350;BME280;13302;48.796;11.978;2023-12-20T01:07:49;96713.84;;;5.96;37.99
25350;BME280;13302;48.796;11.978;2023-12-20T01:10:36;96724.66;;;6.01;37.79
25350;BME280;13302;48.796;11.978;2023-12-20T01:13:23;96704.34;;;5.93;38.16
25350;BME280;13302;48.796;11.978;2023-12-20T01:16:11;96704.16;;;5.90;38.18
25350;BME280;13302;48.796;11.978;2023-12-20T01:18:58;96715.94;;;5.82;38.35
25350;BME280;13302;48.796;11.978;2023-12-20T01:21:46;96709.50;;;5.95;38.36
25350;BME280;13302;48.796;11.978;2023-12-20T01:24:33;96708.53;;;5.91;38.29
25350;BME280;13302;48.796;11.978;2023-12-20T01:27:20;96713.03;;;5.95;38.11
25350;BME280;13302;48.796;11.978;2023-12-20T01:30:07;96690.63;;;6.02;38.11
25350;BME280;13302;48.796;11.978;2023-12-20T01:32:54;96692.84;;;6.00;38.33
25350;BME280;13302;48.796;11.978;2023-12-20T01:35:41;96692.41;;;5.98;38.51
25350;BME280;13302;48.796;11.978;2023-12-20T01:38:28;96698.19;;;5.96;38.51
25350;BME280;13302;48.796;11.978;2023-12-20T01:41:15;96710.28;;;5.95;38.48
25350;BME280;13302;48.796;11.978;2023-12-20T01:44:03;96709.81;;;6.02;38.62
25350;BME280;13302;48.796;11.978;2023-12-20T01:46:51;96701.25;;;6.04;38.20
25350;BME280;13302;48.796;11.978;2023-12-20T01:49:38;96695.59;;;6.09;38.49
25350;BME280;13302;48.796;11.978;2023-12-20T01:52:26;96686.25;;;6.10;38.54
25350;BME280;13302;48.796;11.978;2023-12-20T01:55:14;96684.78;;;6.21;38.28
25350;BME280;13302;48.796;11.978;2023-12-20T01:58:02;96688.78;;;6.23;38.25
25350;BME280;13302;48.796;11.978;2023-12-20T02:00:50;96688.16;;;6.26;38.38
25350;BME280;13302;48.796;11.978;2023-12-20T02:03:39;96683.94;;;6.29;38.16
25350;BME280;13302;48.796;11.978;2023-12-20T02:06:29;96679.72;;;6.31;38.27
25350;BME280;13302;48.796;11.978;2023-12-20T02:09:20;96669.09;;;6.30;38.36
25350;BME280;13302;48.796;11.978;2023-12-20T02:12:07;96665.69;;;6.33;38.29
25350;BME280;13302;48.796;11.978;2023-12-20T02:14:54;96661.00;;;6.33;38.38
25350;BME280;13302;48.796;11.978;2023-12-20T02:17:41;96660.69;;;6.35;38.48
25350;BME280;13302;48.796;11.978;2023-12-20T02:20:30;96655.50;;;6.33;38.49
25350;BME280;13302;48.796;11.978;2023-12-20T02:23:17;96648.75;;;6.31;38.38
25350;BME280;13302;48.796;11.978;2023-12-20T02:26:05;96637.91;;;6.34;38.46
25350;BME280;13302;48.796;11.978;2023-12-20T02:28:53;96641.47;;;6.35;38.70
25350;BME280;13302;48.796;11.978;2023-12-20T02:31:41;96634.38;;;6.34;38.77
25350;BME280;13302;48.796;11.978;2023-12-20T02:34:28;96640.03;;;6.29;38.71
25350;BME280;13302;48.796;11.978;2023-12-20T02:37:15;96639.72;;;6.30;38.78
25350;BME280;13302;48.796;11.978;2023-12-20T02:40:03;96640.16;;;6.32;38.71
25350;BME280;13302;48.796;11.978;2023-12-20T02:42:51;96640.31;;;6.36;38.48
25350;BME280;13302;48.796;11.978;2023-12-20T02:45:38;96639.03;;;6.33;38.67
25350;BME280;13302;48.796;11.978;2023-12-20T02:48:25;96624.19;;;6.34;38.48
25350;BME280;13302;48.796;11.978;2023-12-20T02:51:12;96634.69;;;6.32;38.43
25350;BME280;13302;48.796;11.978;2023-12-20T02:53:59;96635.50;;;6.33;38.41
25350;BME280;13302;48.796;11.978;2023-12-20T02:56:46;96632.28;;;6.31;38.47
25350;BME280;13302;48.796;11.978;2023-12-20T02:59:34;96635.16;;;6.34;38.53
25350;BME280;13302;48.796;11.978;2023-12-20T03:02:20;96642.09;;;6.32;38.37
25350;BME280;13302;48.796;11.978;2023-12-20T03:05:08;96641.47;;;6.35;38.63
25350;BME280;13302;48.796;11.978;2023-12-20T03:07:55;96637.59;;;6.27;38.42
25350;BME280;13302;48.796;11.978;2023-12-20T03:10:42;96636.63;;;6.32;38.37
25350;BME280;13302;48.796;11.978;2023-12-20T03:13:29;96632.09;;;6.27;38.63
25350;BME280;13302;48.796;11.978;2023-12-20T03:16:16;96619.56;;;6.18;38.88
25350;BME280;13302;48.796;11.978;2023-12-20T03:19:03;96620.69;;;6.08;39.00
25350;BME280;13302;48.796;11.978;2023-12-20T03:21:50;96617.94;;;6.17;38.98
25350;BME280;13302;48.796;11.978;2023-12-20T03:24:40;96621.97;;;6.19;38.98
25350;BME280;13302;48.796;11.978;2023-12-20T03:27:27;96615.03;;;6.22;38.79
25350;BME280;13302;48.796;11.978;2023-12-20T03:30:14;96613.88;;;6.23;38.93
25350;BME280;13302;48.796;11.978;2023-12-20T03:33:01;96606.13;;;6.25;38.80
25350;BME280;13302;48.796;11.978;2023-12-20T03:35:48;96608.88;;;6.25;39.07
25350;BME280;13302;48.796;11.978;2023-12-20T03:38:35;96613.88;;;6.23;38.81
25350;BME280;13302;48.796;11.978;2023-12-20T03:41:22;96612.28;;;6.22;39.04
25350;BME280;13302;48.796;11.978;2023-12-20T03:44:09;96614.53;;;6.20;39.17
25350;BME280;13302;48.796;11.978;2023-12-20T03:46:56;96615.66;;;6.19;39.10
25350;BME280;13302;48.796;11.978;2023-12-20T03:49:43;96621.22;;;6.10;39.28
25350;BME280;13302;48.796;11.978;2023-12-20T03:52:30;96630.69;;;6.21;39.07
25350;BME280;13302;48.796;11.978;2023-12-20T03:55:17;96633.09;;;6.23;39.17
25350;BME280;13302;48.796;11.978;2023-12-20T03:58:05;96631.97;;;6.24;39.48
25350;BME280;13302;48.796;11.978;2023-12-20T04:00:52;96636.84;;;6.18;39.41
25350;BME280;13302;48.796;11.978;2023-12-20T04:03:39;96635.69;;;6.19;39.57
25350;BME280;13302;48.796;11.978;2023-12-20T04:06:27;96629.38;;;6.19;39.78
25350;BME280;13302;48.796;11.978;2023-12-20T04:09:15;96644.56;;;6.08;39.92
25350;BME280;13302;48.796;11.978;2023-12-20T04:12:02;96636.84;;;6.18;40.24
25350;BME280;13302;48.796;11.978;2023-12-20T04:14:49;96644.44;;;6.04;40.38
25350;BME280;13302;48.796;11.978;2023-12-20T04:17:36;96628.59;;;6.10;40.33
25350;BME280;13302;48.796;11.978;2023-12-20T04:20:23;96642.66;;;6.08;40.63
25350;BME280;13302;48.796;11.978;2023-12-20T04:23:10;96639.28;;;6.11;40.66
25350;BME280;13302;48.796;11.978;2023-12-20T04:25:57;96653.31;;;6.10;40.75
25350;BME280;13302;48.796;11.978;2023-12-20T04:28:44;96656.88;;;6.10;40.55
25350;BME280;13302;48.796;11.978;2023-12-20T04:31:31;96658.81;;;6.01;41.21
25350;BME280;13302;48.796;11.978;2023-12-20T04:34:18;96657.03;;;6.05;41.08
25350;BME280;13302;48.796;11.978;2023-12-20T04:37:05;96660.59;;;5.97;41.32
25350;BME280;13302;48.796;11.978;2023-12-20T04:39:52;96659.28;;;5.94;41.59
25350;BME280;13302;48.796;11.978;2023-12-20T04:42:40;96654.63;;;5.86;42.01
25350;BME280;13302;48.796;11.978;2023-12-20T04:45:27;96651.25;;;5.89;41.85
25350;BME280;13302;48.796;11.978;2023-12-20T04:48:14;96652.84;;;5.82;42.17
25350;BME280;13302;48.796;11.978;2023-12-20T04:51:01;96650.09;;;5.90;41.99
25350;BME280;13302;48.796;11.978;2023-12-20T04:53:48;96654.00;;;5.81;42.27
25350;BME280;13302;48.796;11.978;2023-12-20T04:56:35;96657.38;;;5.78;42.35
25350;BME280;13302;48.796;11.978;2023-12-20T04:59:22;96662.72;;;5.74;42.36
25350;BME280;13302;48.796;11.978;2023-12-20T05:02:09;96668.03;;;5.71;42.80
25350;BME280;13302;48.796;11.978;2023-12-20T05:04:56;96664.03;;;5.77;42.54
25350;BME280;13302;48.796;11.978;2023-12-20T05:07:43;96660.91;;;5.87;42.49
25350;BME280;13302;48.796;11.978;2023-12-20T05:10:31;96665.78;;;5.81;42.63
25350;BME280;13302;48.796;11.978;2023-12-20T05:13:18;96664.63;;;5.82;42.68
25350;BME280;13302;48.796;11.978;2023-12-20T05:16:05;96668.03;;;5.79;42.75
25350;BME280;13302;48.796;11.978;2023-12-20T05:18:52;96680.13;;;5.78;42.80
25350;BME280;13302;48.796;11.978;2023-12-20T05:21:40;96682.88;;;5.78;42.60
25350;BME280;13302;48.796;11.978;2023-12-20T05:24:27;96684.03;;;5.77;42.81
25350;BME280;13302;48.796;11.978;2023-12-20T05:27:14;96685.00;;;5.73;42.82
25350;BME280;13302;48.796;11.978;2023-12-20T05:30:01;96694.03;;;5.73;43.01
25350;BME280;13302;48.796;11.978;2023-12-20T05:32:49;96698.72;;;5.73;42.98
25350;BME280;13302;48.796;11.978;2023-12-20T05:35:36;96691.59;;;5.72;42.97
25350;BME280;13302;48.796;11.978;2023-12-20T05:38:23;96686.44;;;5.70;42.85
25350;BME280;13302;48.796;11.978;2023-12-20T05:41:10;96687.91;;;5.68;43.22
25350;BME280;13302;48.796;11.978;2023-12-20T05:43:58;96681.28;;;5.69;43.17
25350;BME280;13302;48.796;11.978;2023-12-20T05:46:45;96686.44;;;5.70;43.08
25350;BME280;13302;48.796;11.978;2023-12-20T05:49:32;96692.56;;;5.76;43.06
25350;BME280;13302;48.796;11.978;2023-12-20T05:52:19;96691.28;;;5.73;43.20
25350;BME280;13302;48.796;11.978;2023-12-20T05:55:06;96699.03;;;5.71;42.99
25350;BME280;13302;48.796;11.978;2023-12-20T05:57:53;96696.94;;;5.68;43.34
25350;BME280;13302;48.796;11.978;2023-12-20T06:00:40;96695.97;;;5.81;42.92
25350;BME280;13302;48.796;11.978;2023-12-20T06:03:27;96703.53;;;5.67;43.32
25350;BME280;13302;48.796;11.978;2023-12-20T06:06:14;96704.81;;;5.70;43.34
25350;BME280;13302;48.796;11.978;2023-12-20T06:09:03;96706.28;;;5.76;43.47
25350;BME280;13302;48.796;11.978;2023-12-20T06:11:50;96712.09;;;5.74;43.31
25350;BME280;13302;48.796;11.978;2023-12-20T06:14:37;96716.59;;;5.70;43.49
25350;BME280;13302;48.796;11.978;2023-12-20T06:17:24;96717.91;;;5.64;43.86
25350;BME280;13302;48.796;11.978;2023-12-20T06:20:12;96719.34;;;5.70;43.56
25350;BME280;13302;48.796;11.978;2023-12-20T06:23:00;96723.88;;;5.75;43.49
25350;BME280;13302;48.796;11.978;2023-12-20T06:25:47;96723.88;;;5.75;43.61
25350;BME280;13302;48.796;11.978;2023-12-20T06:28:34;96731.13;;;5.62;44.12
25350;BME280;13302;48.796;11.978;2023-12-20T06:31:21;96733.41;;;5.69;43.90
25350;BME280;13302;48.796;11.978;2023-12-20T06:34:08;96722.44;;;5.69;43.86
25350;BME280;13302;48.796;11.978;2023-12-20T06:36:55;96734.50;;;5.59;44.24
25350;BME280;13302;48.796;11.978;2023-12-20T06:39:42;96732.75;;;5.63;44.24
25350;BME280;13302;48.796;11.978;2023-12-20T06:42:29;96734.97;;;5.61;44.21
25350;BME280;13302;48.796;11.978;2023-12-20T06:45:20;96729.69;;;5.73;43.89
25350;BME280;13302;48.796;11.978;2023-12-20T06:48:07;96737.25;;;5.68;44.23
25350;BME280;13302;48.796;11.978;2023-12-20T06:50:54;96755.19;;;5.65;44.33
25350;BME280;13302;48.796;11.978;2023-12-20T06:53:42;96756.94;;;5.70;44.08
25350;BME280;13302;48.796;11.978;2023-12-20T06:56:29;96755.66;;;5.67;44.21
25350;BME280;13302;48.796;11.978;2023-12-20T06:59:16;96758.22;;;5.64;44.28
25350;BME280;13302;48.796;11.978;2023-12-20T07:02:03;96770.81;;;5.65;44.31
25350;BME280;13302;48.796;11.978;2023-12-20T07:04:50;96777.91;;;5.66;44.27
25350;BME280;13302;48.796;11.978;2023-12-20T07:07:37;96781.47;;;5.75;43.97
25350;BME280;13302;48.796;11.978;2023-12-20T07:10:24;96787.75;;;5.75;44.23
25350;BME280;13302;48.796;11.978;2023-12-20T07:13:11;96780.03;;;5.77;44.31
25350;BME280;13302;48.796;11.978;2023-12-20T07:16:00;96802.78;;;5.69;44.63
25350;BME280;13302;48.796;11.978;2023-12-20T07:18:47;96806.50;;;5.73;44.58
25350;BME280;13302;48.796;11.978;2023-12-20T07:21:34;96806.16;;;5.75;44.42
25350;BME280;13302;48.796;11.978;2023-12-20T07:24:21;96806.00;;;5.80;44.13
25350;BME280;13302;48.796;11.978;2023-12-20T07:27:08;96806.16;;;5.83;44.12
25350;BME280;13302;48.796;11.978;2023-12-20T07:29:55;96809.72;;;5.92;44.09
25350;BME280;13302;48.796;11.978;2023-12-20T07:32:42;96819.22;;;5.69;44.64
25350;BME280;13302;48.796;11.978;2023-12-20T07:35:29;96813.56;;;5.74;44.65
25350;BME280;13302;48.796;11.978;2023-12-20T07:38:18;96831.78;;;5.62;45.12
25350;BME280;13302;48.796;11.978;2023-12-20T07:41:05;96825.84;;;5.68;45.03
25350;BME280;13302;48.796;11.978;2023-12-20T07:43:52;96831.63;;;5.67;44.83
25350;BME280;13302;48.796;11.978;2023-12-20T07:46:40;96838.91;;;5.71;44.67
25350;BME280;13302;48.796;11.978;2023-12-20T07:49:27;96843.25;;;5.72;44.69
25350;BME280;13302;48.796;11.978;2023-12-20T07:52:14;96847.16;;;5.80;44.56
25350;BME280;13302;48.796;11.978;2023-12-20T07:55:02;96857.63;;;5.69;44.90
25350;BME280;13302;48.796;11.978;2023-12-20T07:57:49;96860.16;;;5.57;45.24
25350;BME280;13302;48.796;11.978;2023-12-20T08:00:36;96860.38;;;5.69;45.01
25350;BME280;13302;48.796;11.978;2023-12-20T08:03:23;96854.88;;;5.69;44.74
25350;BME280;13302;48.796;11.978;2023-12-20T08:06:10;96857.81;;;5.81;44.48
25350;BME280;13302;48.796;11.978;2023-12-20T08:08:57;96868.59;;;5.78;44.59
25350;BME280;13302;48.796;11.978;2023-12-20T08:11:52;96869.06;;;5.71;45.01
25350;BME280;13302;48.796;11.978;2023-12-20T08:14:39;96865.84;;;5.69;45.10
25350;BME280;13302;48.796;11.978;2023-12-20T08:17:26;96871.16;;;5.66;45.22
25350;BME280;13302;48.796;11.978;2023-12-20T08:20:13;96867.94;;;5.64;45.32
25350;BME280;13302;48.796;11.978;2023-12-20T08:23:09;96871.34;;;5.78;44.70
25350;BME280;13302;48.796;11.978;2023-12-20T08:25:56;96869.88;;;5.72;45.19
25350;BME280;13302;48.796;11.978;2023-12-20T08:28:43;96859.38;;;5.74;45.08
25350;BME280;13302;48.796;11.978;2023-12-20T08:31:30;96858.44;;;5.87;44.74
25350;BME280;13302;48.796;11.978;2023-12-20T08:34:17;96866.66;;;5.78;45.17
25350;BME280;13302;48.796;11.978;2023-12-20T08:37:04;96874.25;;;5.90;44.90
25350;BME280;13302;48.796;11.978;2023-12-20T08:39:51;96873.63;;;5.84;45.07
25350;BME280;13302;48.796;11.978;2023-12-20T08:42:38;96878.31;;;5.92;44.74
25350;BME280;13302;48.796;11.978;2023-12-20T08:45:25;96861.34;;;5.90;44.89
25350;BME280;13302;48.796;11.978;2023-12-20T08:48:12;96867.50;;;5.96;44.63
25350;BME280;13302;48.796;11.978;2023-12-20T08:51:00;96866.34;;;5.80;45.25
25350;BME280;13302;48.796;11.978;2023-12-20T08:53:47;96860.22;;;5.83;44.96
25350;BME280;13302;48.796;11.978;2023-12-20T08:56:34;96856.69;;;5.91;45.06
25350;BME280;13302;48.796;11.978;2023-12-20T08:59:21;96858.47;;;6.04;44.58
25350;BME280;13302;48.796;11.978;2023-12-20T09:02:08;96859.75;;;5.89;45.15
25350;BME280;13302;48.796;11.978;2023-12-20T09:04:55;96864.91;;;5.91;45.01
25350;BME280;13302;48.796;11.978;2023-12-20T09:07:43;96861.53;;;5.94;44.70
25350;BME280;13302;48.796;11.978;2023-12-20T09:10:31;96868.97;;;5.93;45.08
25350;BME280;13302;48.796;11.978;2023-12-20T09:13:18;96858.16;;;5.97;45.02
25350;BME280;13302;48.796;11.978;2023-12-20T09:16:05;96855.69;;;5.87;45.10
25350;BME280;13302;48.796;11.978;2023-12-20T09:18:52;96855.41;;;5.88;45.20
25350;BME280;13302;48.796;11.978;2023-12-20T09:21:39;96845.38;;;5.92;45.34
25350;BME280;13302;48.796;11.978;2023-12-20T09:24:26;96855.06;;;5.90;45.29
25350;BME280;13302;48.796;11.978;2023-12-20T09:27:13;96855.41;;;5.88;45.55
25350;BME280;13302;48.796;11.978;2023-12-20T09:30:00;96856.84;;;5.94;45.32
25350;BME280;13302;48.796;11.978;2023-12-20T09:32:47;96859.09;;;5.92;45.54
25350;BME280;13302;48.796;11.978;2023-12-20T09:35:35;96858.47;;;5.95;45.44
25350;BME280;13302;48.796;11.978;2023-12-20T09:38:22;96860.09;;;5.96;45.32
25350;BME280;13302;48.796;11.978;2023-12-20T09:41:09;96862.31;;;5.94;45.57
25350;BME280;13302;48.796;11.978;2023-12-20T09:44:00;96862.69;;;6.02;45.54
25350;BME280;13302;48.796;11.978;2023-12-20T09:46:49;96864.75;;;5.96;45.53
25350;BME280;13302;48.796;11.978;2023-12-20T09:49:37;96864.91;;;5.99;45.54
25350;BME280;13302;48.796;11.978;2023-12-20T09:52:25;96858.66;;;6.16;45.10
25350;BME280;13302;48.796;11.978;2023-12-20T09:55:12;96858.97;;;6.06;45.39
25350;BME280;13302;48.796;11.978;2023-12-20T09:58:00;96859.94;;;6.02;45.48
25350;BME280;13302;48.796;11.978;2023-12-20T10:00:47;96841.03;;;6.00;45.77
25350;BME280;13302;48.796;11.978;2023-12-20T10:03:35;96840.41;;;6.12;45.16
25350;BME280;13302;48.796;11.978;2023-12-20T10:06:27;96835.09;;;6.15;45.11
25350;BME280;13302;48.796;11.978;2023-12-20T10:09:14;96846.06;;;6.15;45.30
25350;BME280;13302;48.796;11.978;2023-12-20T10:12:01;96841.84;;;6.09;45.31
25350;BME280;13302;48.796;11.978;2023-12-20T10:14:48;96846.22;;;6.19;45.15
25350;BME280;13302;48.796;11.978;2023-12-20T10:17:35;96847.34;;;6.09;45.62
25350;BME280;13302;48.796;11.978;2023-12-20T10:20:22;96852.69;;;6.23;45.36
25350;BME280;13302;48.796;11.978;2023-12-20T10:23:10;96845.91;;;6.20;45.33
25350;BME280;13302;48.796;11.978;2023-12-20T10:25:58;96836.25;;;6.14;45.55
25350;BME280;13302;48.796;11.978;2023-12-20T10:28:45;96828.16;;;6.18;45.52
25350;BME280;13302;48.796;11.978;2023-12-20T10:31:33;96833.97;;;6.16;45.65
25350;BME280;13302;48.796;11.978;2023-12-20T10:34:21;96832.03;;;6.17;45.83
25350;BME280;13302;48.796;11.978;2023-12-20T10:37:08;96827.34;;;6.17;45.87
25350;BME280;13302;48.796;11.978;2023-12-20T10:39:56;96828.63;;;6.20;45.39
25350;BME280;13302;48.796;11.978;2023-12-20T10:42:44;96825.06;;;6.11;46.11
25350;BME280;13302;48.796;11.978;2023-12-20T10:45:32;96826.03;;;6.23;45.60
25350;BME280;13302;48.796;11.978;2023-12-20T10:48:19;96827.81;;;6.28;45.39
25350;BME280;13302;48.796;11.978;2023-12-20T10:51:08;96823.16;;;6.28;45.40
25350;BME280;13302;48.796;11.978;2023-12-20T10:53:56;96832.34;;;6.32;45.50
25350;BME280;13302;48.796;11.978;2023-12-20T10:56:43;96833.81;;;6.30;45.24
25350;BME280;13302;48.796;11.978;2023-12-20T10:59:32;96833.97;;;6.33;44.88
25350;BME280;13302;48.796;11.978;2023-12-20T11:02:21;96832.03;;;6.34;44.84
25350;BME280;13302;48.796;11.978;2023-12-20T11:05:31;96833.31;;;6.36;44.68
25350;BME280;13302;48.796;11.978;2023-12-20T11:14:47;96838.81;;;6.28;44.71
25350;BME280;13302;48.796;11.978;2023-12-20T11:17:38;96842.22;;;6.25;44.77
25350;BME280;13302;48.796;11.978;2023-12-20T11:20:39;96839.16;;;6.18;44.66
25350;BME280;13302;48.796;11.978;2023-12-20T11:23:27;96830.91;;;6.26;44.29
25350;BME280;13302;48.796;11.978;2023-12-20T11:26:16;96825.41;;;6.26;44.40
25350;BME280;13302;48.796;11.978;2023-12-20T11:29:29;96811.19;;;6.24;44.25
25350;BME280;13302;48.796;11.978;2023-12-20T11:38:00;96817.16;;;6.09;44.11
25350;BME280;13302;48.796;11.978;2023-12-20T11:40:50;96818.28;;;6.08;44.29
25350;BME280;13302;48.796;11.978;2023-12-20T11:43:39;96808.75;;;6.06;44.45
25350;BME280;13302;48.796;11.978;2023-12-20T11:46:26;96815.06;;;6.06;44.39
25350;BME280;13302;48.796;11.978;2023-12-20T11:49:13;96822.47;;;5.97;44.47
25350;BME280;13302;48.796;11.978;2023-12-20T11:52:00;96820.22;;;5.99;44.19
25350;BME280;13302;48.796;11.978;2023-12-20T11:54:47;96815.69;;;6.03;44.21
25350;BME280;13302;48.796;11.978;2023-12-20T11:57:35;96815.22;;;6.01;44.60
25350;BME280;13302;48.796;11.978;2023-12-20T12:00:23;96800.06;;;6.12;44.22
25350;BME280;13302;48.796;11.978;2023-12-20T12:03:14;96799.25;;;6.12;44.50
25350;BME280;13302;48.796;11.978;2023-12-20T12:06:03;96800.22;;;6.16;44.43
25350;BME280;13302;48.796;11.978;2023-12-20T12:08:52;96804.59;;;6.25;44.43
25350;BME280;13302;48.796;11.978;2023-12-20T12:11:39;96791.16;;;6.24;44.43
25350;BME280;13302;48.796;11.978;2023-12-20T12:14:26;96787.28;;;6.42;44.18
25350;BME280;13302;48.796;11.978;2023-12-20T12:17:14;96792.44;;;6.43;44.23
25350;BME280;13302;48.796;11.978;2023-12-20T12:20:05;96781.63;;;6.47;44.09
25350;BME280;13302;48.796;11.978;2023-12-20T12:23:04;96781.25;;;6.57;43.81
25350;BME280;13302;48.796;11.978;2023-12-20T12:25:51;96774.09;;;6.73;43.35
25350;BME280;13302;48.796;11.978;2023-12-20T12:28:42;96776.50;;;6.83;43.55
25350;BME280;13302;48.796;11.978;2023-12-20T12:31:30;96783.44;;;6.89;43.34
25350;BME280;13302;48.796;11.978;2023-12-20T12:34:17;96773.25;;;6.90;42.53
25350;BME280;13302;48.796;11.978;2023-12-20T12:37:05;96779.34;;;7.04;42.23
25350;BME280;13302;48.796;11.978;2023-12-20T12:39:55;96791.63;;;6.98;41.92
25350;BME280;13302;48.796;11.978;2023-12-20T12:42:44;96778.53;;;7.04;41.66
25350;BME280;13302;48.796;11.978;2023-12-20T12:45:31;96779.81;;;7.06;41.48
25350;BME280;13302;48.796;11.978;2023-12-20T12:48:19;96781.28;;;7.04;41.49
25350;BME280;13302;48.796;11.978;2023-12-20T12:51:07;96791.47;;;7.03;41.60
25350;BME280;13302;48.796;11.978;2023-12-20T12:53:59;96790.50;;;6.99;41.38
25350;BME280;13302;48.796;11.978;2023-12-20T12:56:46;96782.94;;;6.96;41.45
25350;BME280;13302;48.796;11.978;2023-12-20T12:59:34;96789.69;;;6.99;41.69
25350;BME280;13302;48.796;11.978;2023-12-20T13:02:26;96791.63;;;6.98;41.87
25350;BME280;13302;48.796;11.978;2023-12-20T13:05:13;96793.13;;;6.96;41.84
25350;BME280;13302;48.796;11.978;2023-12-20T13:08:00;96787.28;;;6.97;41.65
25350;BME280;13302;48.796;11.978;2023-12-20T13:10:47;96775.16;;;6.98;41.72
25350;BME280;13302;48.796;11.978;2023-12-20T13:13:34;96787.13;;;6.93;41.38
25350;BME280;13302;48.796;11.978;2023-12-20T13:16:21;96776.00;;;6.90;41.70
25350;BME280;13302;48.796;11.978;2023-12-20T13:19:08;96776.69;;;6.78;41.56
25350;BME280;13302;48.796;11.978;2023-12-20T13:21:57;96770.38;;;6.78;41.36
25350;BME280;13302;48.796;11.978;2023-12-20T13:24:45;96766.66;;;6.82;41.04
25350;BME280;13302;48.796;11.978;2023-12-20T13:27:32;96766.94;;;6.89;40.65
25350;BME280;13302;48.796;11.978;2023-12-20T13:30:19;96780.69;;;6.89;40.67
25350;BME280;13302;48.796;11.978;2023-12-20T13:33:07;96770.50;;;6.90;40.40
25350;BME280;13302;48.796;11.978;2023-12-20T13:35:57;96782.81;;;6.84;39.91
25350;BME280;13302;48.796;11.978;2023-12-20T13:38:45;96779.88;;;6.80;39.75
25350;BME280;13302;48.796;11.978;2023-12-20T13:41:32;96788.78;;;6.86;39.66
25350;BME280;13302;48.796;11.978;2023-12-20T13:44:19;96781.38;;;6.78;39.62
25350;BME280;13302;48.796;11.978;2023-12-20T13:47:06;96785.25;;;6.77;39.79
25350;BME280;13302;48.796;11.978;2023-12-20T13:49:54;96791.72;;;6.72;39.73
25350;BME280;13302;48.796;11.978;2023-12-20T13:52:43;96797.03;;;6.77;39.37
25350;BME280;13302;48.796;11.978;2023-12-20T13:55:33;96792.53;;;6.73;39.69
25350;BME280;13302;48.796;11.978;2023-12-20T13:58:20;96793.03;;;6.75;39.60
25350;BME280;13302;48.796;11.978;2023-12-20T14:01:09;96782.06;;;6.66;39.39
25350;BME280;13302;48.796;11.978;2023-12-20T14:03:57;96792.25;;;6.57;39.55
25350;BME280;13302;48.796;11.978;2023-12-20T14:06:44;96779.81;;;6.60;39.68
25350;BME280;13302;48.796;11.978;2023-12-20T14:09:32;96784.69;;;6.54;39.34
25350;BME280;13302;48.796;11.978;2023-12-20T14:12:18;96783.53;;;6.55;39.58
25350;BME280;13302;48.796;11.978;2023-12-20T14:15:07;96782.59;;;6.51;39.79
25350;BME280;13302;48.796;11.978;2023-12-20T14:17:58;96786.59;;;6.54;39.60
25350;BME280;13302;48.796;11.978;2023-12-20T14:20:45;96790.63;;;6.56;39.60
25350;BME280;13302;48.796;11.978;2023-12-20T14:23:34;96798.72;;;6.53;39.60
25350;BME280;13302;48.796;11.978;2023-12-20T14:26:21;96799.38;;;6.50;39.43
25350;BME280;13302;48.796;11.978;2023-12-20T14:29:08;96802.28;;;6.53;39.46
25350;BME280;13302;48.796;11.978;2023-12-20T14:31:56;96802.59;;;6.52;39.49
25350;BME280;13302;48.796;11.978;2023-12-20T14:34:43;96804.22;;;6.53;39.26
25350;BME280;13302;48.796;11.978;2023-12-20T14:37:30;96802.28;;;6.53;39.33
25350;BME280;13302;48.796;11.978;2023-12-20T14:40:18;96799.38;;;6.41;39.20
25350;BME280;13302;48.796;11.978;2023-12-20T14:43:06;96806.50;;;6.42;38.97
25350;BME280;13302;48.796;11.978;2023-12-20T14:45:54;96811.19;;;6.41;39.22
25350;BME280;13302;48.796;11.978;2023-12-20T14:48:41;96799.38;;;6.41;39.32
25350;BME280;13302;48.796;11.978;2023-12-20T14:51:28;96797.91;;;6.43;39.25
25350;BME280;13302;48.796;11.978;2023-12-20T14:54:15;96804.41;;;6.39;39.00
25350;BME280;13302;48.796;11.978;2023-12-20T14:57:03;96787.94;;;6.30;39.24
25350;BME280;13302;48.796;11.978;2023-12-20T14:59:52;96792.13;;;6.36;39.02